Time;durP1;ratioP1;P1;durP2;ratioP2;P2;SDS_P1;SDS_P2;PMS_P1;PMS_P2;Temp;Humidity;BMP_temperature;BMP_pressure;BME280_temperature;BME280_humidity;BME280_pressure;Samples;Min_cycle;Max_cycle;Signal;HPM_P1;HPM_P2
2021/12/04 00:00:28;;;;;;;9.83;4.53;;;;;;;18.43;100.00;99488.94;1670281;85;21416;-72
2021/12/04 00:02:56;;;;;;;11.90;4.70;;;;;;;18.30;100.00;99484.11;1670742;85;22807;-70
2021/12/04 00:05:25;;;;;;;15.00;5.30;;;;;;;18.30;100.00;99484.11;1682856;84;21492;-65
2021/12/04 00:07:53;;;;;;;10.33;4.80;;;;;;;18.42;100.00;99486.03;1702806;84;21289;-64
2021/12/04 00:10:27;;;;;;;10.40;4.23;;;;;;;18.28;100.00;99483.02;1703356;84;21325;-65
2021/12/04 00:12:52;;;;;;;12.27;4.20;;;;;;;18.50;100.00;99480.80;1702574;82;21813;-69
2021/12/04 00:15:19;;;;;;;8.27;4.47;;;;;;;18.50;100.00;99480.80;1703256;83;21419;-65
2021/12/04 00:17:47;;;;;;;10.20;4.77;;;;;;;18.65;100.00;99481.70;1700023;83;21353;-66
2021/12/04 00:20:14;;;;;;;7.77;4.00;;;;;;;18.65;100.00;99481.70;1702179;83;22143;-71
2021/12/04 00:22:41;;;;;;;10.30;4.37;;;;;;;18.60;100.00;99487.45;1712053;83;21917;-65
2021/12/04 00:25:08;;;;;;;10.67;4.53;;;;;;;18.13;100.00;99498.20;1712309;83;21990;-73
2021/12/04 00:27:36;;;;;;;9.37;4.93;;;;;;;17.79;100.00;99500.78;1712485;83;21461;-65
2021/12/04 00:30:04;;;;;;;11.00;4.93;;;;;;;17.79;100.00;99500.78;1708962;82;21951;-68
2021/12/04 00:32:34;;;;;;;11.23;4.30;;;;;;;17.97;100.00;99493.84;1708948;83;21446;-71
2021/12/04 00:35:46;;;;;;;10.50;4.20;;;;;;;17.83;100.00;99495.28;1702608;83;21389;-66
2021/12/04 00:51:09;;;;;;;16.17;9.37;;;;;;;18.14;93.64;99542.51;1700190;84;21492;-66
2021/12/04 00:53:37;;;;;;;19.73;11.37;;;;;;;18.14;93.64;99542.51;1700206;84;21562;-64
2021/12/04 00:56:05;;;;;;;16.57;10.97;;;;;;;17.89;86.64;99550.46;1700118;82;21281;-72
2021/12/04 00:58:33;;;;;;;19.10;10.63;;;;;;;17.24;89.91;99556.00;1700566;82;21391;-64
2021/12/04 01:01:00;;;;;;;21.03;11.13;;;;;;;17.23;88.43;99555.70;1700309;82;21391;-62
2021/12/04 01:03:27;;;;;;;15.67;11.33;;;;;;;17.20;86.48;99561.48;1696596;82;21804;-63
2021/12/04 01:05:55;;;;;;;16.10;11.50;;;;;;;16.76;88.81;99567.16;1672879;85;21355;-61
2021/12/04 01:08:22;;;;;;;15.33;10.73;;;;;;;16.76;88.81;99567.16;1679135;85;21371;-61
2021/12/04 01:10:50;;;;;;;14.57;10.30;;;;;;;16.81;89.27;99575.65;1679586;85;22722;-62
2021/12/04 01:13:17;;;;;;;11.33;8.70;;;;;;;17.05;84.02;99571.81;1679788;85;21746;-80
2021/12/04 01:15:44;;;;;;;14.07;9.00;;;;;;;17.05;82.08;99575.76;1679669;85;21811;-60
2021/12/04 01:18:12;;;;;;;11.93;8.33;;;;;;;16.87;81.17;99579.97;1679455;84;21749;-60
2021/12/04 01:20:39;;;;;;;14.00;9.10;;;;;;;16.69;82.04;99584.39;1679416;85;21783;-61
2021/12/04 01:23:07;;;;;;;10.10;7.70;;;;;;;16.35;87.27;99593.30;1679474;85;22940;-76
2021/12/04 01:25:37;;;;;;;9.23;7.60;;;;;;;16.46;85.23;99592.44;1679570;85;21344;-62
2021/12/04 01:28:05;;;;;;;9.18;7.08;;;;;;;16.18;85.92;99597.22;1679683;85;21419;-61
2021/12/04 01:30:32;;;;;;;8.90;6.57;;;;;;;16.04;88.36;99603.27;1679263;85;20886;-62
2021/12/04 01:32:59;;;;;;;7.70;5.87;;;;;;;15.85;89.58;99618.42;1679361;85;21378;-67
2021/12/04 01:35:26;;;;;;;8.73;6.80;;;;;;;15.71;92.97;99625.75;1679919;84;21264;-66
2021/12/04 01:37:54;;;;;;;11.00;6.77;;;;;;;15.68;93.82;99621.48;1679821;85;21322;-61
2021/12/04 01:40:21;;;;;;;8.47;7.10;;;;;;;15.48;96.29;99625.25;1680101;85;21328;-60
2021/12/04 01:42:48;;;;;;;9.07;6.03;;;;;;;15.45;97.30;99628.84;1679203;85;21221;-61
2021/12/04 01:45:18;;;;;;;8.87;6.17;;;;;;;15.59;95.41;99632.83;1679707;84;22543;-62
2021/12/04 01:47:45;;;;;;;8.07;5.83;;;;;;;15.41;98.16;99637.70;1680100;85;21944;-62
2021/12/04 01:50:12;;;;;;;7.97;6.57;;;;;;;15.45;96.93;99641.46;1679399;85;21073;-62
2021/12/04 01:52:41;;;;;;;9.07;5.73;;;;;;;15.49;98.86;99645.74;1679433;85;21153;-61
2021/12/04 01:55:09;;;;;;;8.57;5.63;;;;;;;15.26;98.25;99648.66;1678905;85;21184;-68
2021/12/04 01:57:38;;;;;;;6.53;5.50;;;;;;;15.57;95.74;99657.23;1680247;85;21414;-60
2021/12/04 02:00:08;;;;;;;6.00;4.70;;;;;;;15.48;97.26;99656.77;1679709;85;21381;-60
2021/12/04 02:02:39;;;;;;;6.20;4.80;;;;;;;15.86;92.82;99663.89;1679291;85;21224;-75
2021/12/04 02:05:07;;;;;;;5.90;4.30;;;;;;;15.90;89.92;99653.20;1679569;84;21286;-61
2021/12/04 02:07:34;;;;;;;5.17;3.90;;;;;;;15.49;93.85;99659.70;1680133;85;21292;-60
2021/12/04 02:10:04;;;;;;;5.47;4.03;;;;;;;15.63;93.09;99650.25;1679999;85;21219;-62
2021/12/04 02:12:32;;;;;;;5.43;4.00;;;;;;;15.79;90.99;99657.44;1679438;85;21542;-68
2021/12/04 02:14:58;;;;;;;4.50;3.07;;;;;;;15.94;88.91;99663.52;1679257;85;21456;-60
2021/12/04 02:17:26;;;;;;;4.57;3.23;;;;;;;15.68;90.40;99665.66;1680151;85;21300;-61
2021/12/04 02:19:53;;;;;;;2.87;1.70;;;;;;;15.38;94.18;99676.75;1679712;85;21078;-61
2021/12/04 02:22:20;;;;;;;2.77;0.80;;;;;;;15.40;91.71;99686.52;1679790;84;21203;-62
2021/12/04 02:24:48;;;;;;;2.98;0.50;;;;;;;15.26;81.50;99698.55;1679564;85;21635;-80
2021/12/04 02:27:15;;;;;;;1.37;0.57;;;;;;;15.07;77.27;99699.67;1670374;85;20997;-68
2021/12/04 02:29:47;;;;;;;0.77;0.27;;;;;;;14.76;77.69;99708.61;1679951;85;21789;-61
2021/12/04 02:32:15;;;;;;;1.07;0.40;;;;;;;14.61;76.80;99707.70;1679677;84;29169;-66
2021/12/04 02:34:42;;;;;;;1.17;0.40;;;;;;;14.65;74.99;99718.04;1679664;85;21072;-65
2021/12/04 02:37:10;;;;;;;1.00;0.50;;;;;;;14.49;75.93;99727.33;1679789;85;21095;-62
2021/12/04 02:39:38;;;;;;;1.35;0.50;;;;;;;14.49;77.21;99738.31;1680292;85;21103;-62
2021/12/04 02:42:06;;;;;;;1.80;1.07;;;;;;;14.72;73.99;99734.49;1679320;85;21239;-70
2021/12/04 02:44:37;;;;;;;2.17;0.68;;;;;;;15.24;69.63;99745.77;1679557;85;20985;-86
2021/12/04 02:47:05;;;;;;;2.77;0.85;;;;;;;15.35;67.55;99759.95;1679746;85;21047;-60
2021/12/04 02:49:34;;;;;;;1.80;0.47;;;;;;;14.93;67.37;99758.14;1680155;85;20921;-60
2021/12/04 02:52:05;;;;;;;1.15;0.50;;;;;;;14.94;69.26;99757.11;1679516;85;21006;-79
2021/12/04 02:54:34;;;;;;;1.87;0.80;;;;;;;14.65;69.54;99767.88;1679280;85;20867;-61
2021/12/04 02:57:02;;;;;;;1.50;0.65;;;;;;;14.68;70.37;99775.31;1679440;85;22414;-60
2021/12/04 02:59:29;;;;;;;1.42;0.50;;;;;;;15.28;66.62;99777.91;1680347;85;21483;-60
2021/12/04 03:01:57;;;;;;;1.27;0.57;;;;;;;15.07;67.73;99781.05;1680042;85;21029;-81
2021/12/04 03:04:25;;;;;;;1.60;0.70;;;;;;;14.90;68.31;99787.45;1680066;84;21028;-85
2021/12/04 03:06:53;;;;;;;1.42;0.60;;;;;;;14.85;68.62;99793.88;1683759;83;21169;-60
2021/12/04 03:09:20;;;;;;;1.05;0.40;;;;;;;15.20;65.00;99783.48;1683627;83;20867;-65
2021/12/04 03:11:48;;;;;;;1.30;0.50;;;;;;;14.65;67.00;99795.42;1683565;83;21022;-71
2021/12/04 03:14:19;;;;;;;1.47;0.62;;;;;;;15.21;63.50;99802.16;1684607;84;20964;-70
2021/12/04 03:16:47;;;;;;;1.45;0.40;;;;;;;15.30;61.70;99796.88;1695669;84;21006;-65
2021/12/04 03:19:17;;;;;;;0.90;0.40;;;;;;;15.01;61.82;99803.75;1684258;84;21146;-59
2021/12/04 03:21:45;;;;;;;0.50;0.20;;;;;;;14.67;62.32;99803.89;1695740;84;21003;-67
2021/12/04 03:24:14;;;;;;;1.30;0.40;;;;;;;14.71;61.46;99808.98;1695144;83;20949;-63
2021/12/04 03:26:41;;;;;;;1.45;0.50;;;;;;;14.75;61.10;99815.39;1695042;84;21593;-58
2021/12/04 03:29:15;;;;;;;0.95;0.40;;;;;;;14.83;59.62;99821.64;1695075;84;21157;-60
2021/12/04 03:42:38;;;;;;;1.15;0.57;;;;;;;14.16;65.18;99832.54;1695128;84;20980;-73
2021/12/04 03:45:07;;;;;;;0.80;0.42;;;;;;;14.24;64.02;99832.25;1695257;84;21096;-60
2021/12/04 03:47:37;;;;;;;1.40;0.50;;;;;;;14.23;64.27;99841.14;1695024;84;20952;-59
2021/12/04 03:50:05;;;;;;;1.57;0.50;;;;;;;14.28;64.20;99840.48;1695073;84;21000;-59
2021/12/04 03:52:32;;;;;;;0.90;0.40;;;;;;;14.20;65.19;99846.81;1695596;84;21024;-74
2021/12/04 03:54:59;;;;;;;1.15;0.50;;;;;;;13.83;66.44;99857.23;1695090;84;21094;-58
2021/12/04 03:57:27;;;;;;;1.32;0.40;;;;;;;13.79;70.00;99856.58;1694677;84;21814;-58
2021/12/04 03:59:55;;;;;;;1.02;0.50;;;;;;;13.18;73.58;99863.66;1692299;83;21043;-59
2021/12/04 04:02:23;;;;;;;1.27;0.60;;;;;;;13.48;75.08;99862.61;1722159;81;21038;-60
2021/12/04 04:04:52;;;;;;;1.30;0.70;;;;;;;13.80;70.36;99868.65;1735057;82;21058;-61
2021/12/04 04:07:19;;;;;;;1.85;0.82;;;;;;;13.50;73.10;99880.23;1737061;82;20924;-60
2021/12/04 04:09:46;;;;;;;1.35;0.55;;;;;;;13.25;73.59;99894.56;1737652;82;21687;-64
2021/12/04 04:12:13;;;;;;;1.40;0.68;;;;;;;13.15;77.33;99891.88;1737258;82;20888;-60
2021/12/04 04:14:42;;;;;;;1.25;0.57;;;;;;;13.26;75.85;99900.91;1737271;82;20963;-61
2021/12/04 04:17:10;;;;;;;1.75;0.93;;;;;;;13.09;77.73;99904.98;1736095;82;20995;-60
2021/12/04 04:19:37;;;;;;;0.90;0.40;;;;;;;13.36;75.31;99904.38;1737689;82;20967;-58
2021/12/04 04:22:05;;;;;;;2.05;0.85;;;;;;;13.25;69.10;99907.14;1737195;82;21094;-59
2021/12/04 04:24:32;;;;;;;2.08;0.60;;;;;;;13.45;67.69;99905.75;1737437;82;20916;-59
2021/12/04 04:26:59;;;;;;;1.40;0.62;;;;;;;13.63;63.86;99905.02;1735112;81;20994;-73
2021/12/04 04:29:26;;;;;;;1.47;0.70;;;;;;;14.41;59.02;99912.98;1736719;82;22204;-61
2021/12/04 04:31:55;;;;;;;1.20;0.57;;;;;;;13.73;59.41;99925.52;1728381;82;21529;-60
2021/12/04 04:34:33;;;;;;;1.05;0.50;;;;;;;13.47;61.30;99924.66;1736655;82;21140;-59
2021/12/04 04:37:16;;;;;;;1.17;0.60;;;;;;;13.20;62.54;99926.58;1735476;80;21514;-74
2021/12/04 05:12:12;;;;;;;3.62;1.77;;;;;;;13.68;60.10;99990.34;1748006;81;21073;-58
2021/12/04 05:14:31;;;;;;;3.05;1.10;;;;;;;14.31;56.82;99975.88;1748861;81;21152;-60
2021/12/04 05:19:43;;;;;;;2.27;1.00;;;;;;;14.31;55.32;99969.33;1673013;85;21526;-58
2021/12/04 05:22:10;;;;;;;2.22;0.80;;;;;;;14.33;54.84;99964.69;1748362;80;21497;-60
2021/12/04 05:24:37;;;;;;;2.55;0.80;;;;;;;14.39;54.35;99976.13;1749132;81;21136;-73
2021/12/04 05:27:05;;;;;;;1.80;0.80;;;;;;;14.76;53.56;99978.86;1748263;81;21129;-59
2021/12/04 05:29:32;;;;;;;2.15;0.85;;;;;;;14.80;52.60;99980.02;1749330;81;21074;-59
2021/12/04 05:32:00;;;;;;;1.85;0.80;;;;;;;14.79;52.35;99981.84;1740819;81;21008;-74
2021/12/04 05:34:27;;;;;;;2.47;0.88;;;;;;;14.55;53.09;99988.74;1745158;81;21045;-64
2021/12/04 05:36:54;;;;;;;1.90;1.00;;;;;;;14.26;53.88;99991.47;1746526;81;20958;-63
2021/12/04 05:39:23;;;;;;;2.62;1.00;;;;;;;14.25;53.80;99992.48;1748441;81;21080;-61
2021/12/04 05:41:51;;;;;;;3.10;1.40;;;;;;;13.22;56.97;99992.62;1749249;81;21485;-76
2021/12/04 05:44:22;;;;;;;3.17;1.60;;;;;;;13.38;58.03;100000.03;1748370;81;20943;-60
2021/12/04 05:47:00;;;;;;;3.27;1.62;;;;;;;13.24;58.58;100016.78;1746306;80;21560;-61
2021/12/04 05:49:26;;;;;;;3.80;1.70;;;;;;;13.13;58.65;100022.63;1740575;81;21133;-60
2021/12/04 05:56:47;;;;;;;3.50;1.60;;;;;;;13.65;56.14;100035.27;1737857;81;21114;-76
2021/12/04 05:59:14;;;;;;;2.22;1.20;;;;;;;13.66;56.56;100036.87;1745243;81;21164;-60
2021/12/04 06:01:41;;;;;;;2.98;1.20;;;;;;;13.56;57.39;100036.50;1742606;81;20975;-61
2021/12/04 06:04:11;;;;;;;3.65;1.72;;;;;;;13.37;57.84;100042.94;1731910;81;21174;-62
2021/12/04 06:06:38;;;;;;;3.55;1.55;;;;;;;13.52;57.87;100057.57;1727754;81;22409;-62
2021/12/04 06:09:05;;;;;;;3.67;1.80;;;;;;;13.15;59.57;100058.06;1734383;81;21043;-61
2021/12/04 06:11:34;;;;;;;3.30;1.67;;;;;;;13.32;59.34;100053.20;1744869;81;21073;-61
2021/12/04 06:14:01;;;;;;;4.55;1.85;;;;;;;13.31;59.33;100056.84;1739347;81;21398;-63
2021/12/04 06:16:28;;;;;;;4.53;1.85;;;;;;;13.38;59.21;100061.56;1743098;81;21132;-61
2021/12/04 06:18:58;;;;;;;5.78;2.98;;;;;;;13.52;59.46;100068.84;1739803;81;20996;-70
2021/12/04 06:24:10;;;;;;;3.35;1.77;;;;;;;13.49;58.83;100082.38;1738690;81;20991;-61
2021/12/04 06:26:38;;;;;;;4.12;1.98;;;;;;;13.52;58.49;100085.87;1741546;80;21549;-60
2021/12/04 06:29:06;;;;;;;15.45;7.78;;;;;;;13.59;59.09;100084.55;1752189;80;21132;-61
2021/12/04 06:31:33;;;;;;;15.03;8.70;;;;;;;13.61;58.99;100078.09;1739753;81;21355;-60
2021/12/04 06:34:01;;;;;;;8.88;5.87;;;;;;;13.81;58.66;100078.02;1747762;81;21425;-60
2021/12/04 06:36:30;;;;;;;7.55;4.08;;;;;;;13.91;58.11;100078.09;1748243;81;21057;-62
2021/12/04 06:38:58;;;;;;;9.25;5.58;;;;;;;14.23;56.63;100081.53;1747227;81;20986;-72
2021/12/04 06:41:25;;;;;;;6.15;3.95;;;;;;;13.92;58.03;100082.31;1748502;81;21504;-62
2021/12/04 06:43:53;;;;;;;5.72;3.37;;;;;;;13.99;57.66;100085.20;1745325;81;21045;-71
2021/12/04 06:46:21;;;;;;;10.75;6.17;;;;;;;14.15;56.39;100086.52;1747739;81;21073;-60
2021/12/04 06:49:13;;;;;;;6.72;3.75;;;;;;;14.19;56.07;100090.32;1743765;81;21071;-74
2021/12/04 06:51:39;;;;;;;8.40;5.67;;;;;;;14.01;55.90;100084.97;1739422;81;21044;-61
2021/12/04 06:56:36;;;;;;;13.55;7.45;;;;;;;14.10;55.44;100083.22;1747453;80;22309;-68
2021/12/04 06:59:09;;;;;;;8.65;3.92;;;;;;;13.85;55.71;100084.44;1748022;81;20963;-61
2021/12/04 07:01:36;;;;;;;6.45;3.47;;;;;;;13.98;54.78;100084.08;1750275;80;21039;-60
2021/12/04 07:04:04;;;;;;;5.67;2.98;;;;;;;14.01;55.46;100086.28;1751123;80;21051;-59
2021/12/04 07:06:31;;;;;;;7.60;3.33;;;;;;;14.06;54.77;100085.97;1751463;81;21795;-63
2021/12/04 07:08:58;;;;;;;6.00;2.67;;;;;;;13.95;55.73;100086.62;1750011;81;22556;-59
2021/12/04 07:11:27;;;;;;;12.10;5.50;;;;;;;14.12;55.41;100101.34;1750827;81;20931;-59
2021/12/04 07:13:54;;;;;;;16.52;6.75;;;;;;;14.31;55.48;100097.80;1750861;81;21061;-59
2021/12/04 07:16:22;;;;;;;11.70;4.80;;;;;;;12.97;60.58;100102.36;1750776;81;20892;-73
2021/12/04 07:18:50;;;;;;;16.30;6.25;;;;;;;12.86;63.83;100105.58;1749991;81;22264;-63
2021/12/04 07:21:18;;;;;;;7.78;2.90;;;;;;;13.29;62.89;100102.04;1751322;81;21480;-74
2021/12/04 07:23:45;;;;;;;6.65;2.83;;;;;;;13.51;61.84;100100.48;1750702;81;20995;-59
2021/12/04 07:26:13;;;;;;;12.23;4.70;;;;;;;13.85;59.77;100100.16;1751460;81;21018;-60
2021/12/04 07:28:41;;;;;;;11.57;4.70;;;;;;;14.13;58.61;100097.73;1751067;81;20987;-62
2021/12/04 07:31:09;;;;;;;7.70;3.15;;;;;;;14.03;57.83;100094.75;1751547;81;21139;-65
2021/12/04 07:33:38;;;;;;;2.85;1.60;;;;;;;13.69;59.23;100100.64;1751240;81;20919;-60
2021/12/04 07:36:05;;;;;;;2.77;1.27;;;;;;;13.55;60.34;100105.10;1749892;81;21058;-60
2021/12/04 07:38:32;;;;;;;3.15;1.35;;;;;;;13.08;60.31;100108.80;1750844;81;21021;-67
2021/12/04 07:41:03;;;;;;;3.20;1.75;;;;;;;13.35;60.42;100104.36;1750412;81;21005;-59
2021/12/04 07:43:30;;;;;;;3.65;1.80;;;;;;;13.25;61.40;100111.81;1750967;81;21110;-60
2021/12/04 07:45:58;;;;;;;3.87;2.05;;;;;;;13.20;61.12;100108.48;1749844;80;21093;-60
2021/12/04 07:48:24;;;;;;;4.35;2.22;;;;;;;13.52;61.13;100108.63;1747695;81;21058;-59
2021/12/04 07:50:52;;;;;;;3.90;2.42;;;;;;;13.70;60.88;100116.64;1747527;81;21457;-63
2021/12/04 07:53:19;;;;;;;4.70;3.12;;;;;;;13.65;61.32;100119.59;1743928;80;20990;-63
2021/12/04 07:55:47;;;;;;;9.13;3.62;;;;;;;13.64;61.87;100125.34;1756585;80;21131;-64
2021/12/04 07:58:14;;;;;;;7.28;3.52;;;;;;;13.76;61.11;100122.37;1759629;80;21524;-59
2021/12/04 08:00:43;;;;;;;4.08;2.22;;;;;;;14.10;60.09;100125.67;1737424;80;33127;-75
2021/12/04 08:03:10;;;;;;;4.08;2.22;;;;;;;14.50;57.84;100121.02;1758469;80;21028;-60
2021/12/04 08:05:37;;;;;;;3.95;2.12;;;;;;;14.47;56.46;100116.19;1754733;80;21141;-58
2021/12/04 08:08:05;;;;;;;4.53;1.95;;;;;;;14.51;55.84;100117.41;1740883;80;21174;-59
2021/12/04 08:10:34;;;;;;;3.05;1.67;;;;;;;14.54;56.14;100112.22;1736332;81;21502;-58
2021/12/04 08:13:02;;;;;;;2.83;1.50;;;;;;;14.58;56.83;100114.23;1746445;80;21544;-70
2021/12/04 08:15:32;;;;;;;3.10;1.65;;;;;;;14.89;56.17;100115.20;1750128;80;22103;-59
2021/12/04 08:18:01;;;;;;;3.10;1.77;;;;;;;14.80;56.18;100122.52;1740531;81;21000;-60
2021/12/04 08:20:28;;;;;;;2.85;1.60;;;;;;;14.78;56.55;100127.20;1742737;81;21143;-60
2021/12/04 08:22:55;;;;;;;3.90;2.12;;;;;;;14.97;56.01;100123.32;1740396;81;20892;-73
2021/12/04 08:25:22;;;;;;;4.95;2.42;;;;;;;15.30;54.48;100121.69;1748589;80;21095;-59
2021/12/04 08:27:51;;;;;;;4.10;2.58;;;;;;;15.41;53.68;100130.16;1740191;80;21102;-60
2021/12/04 08:30:21;;;;;;;3.72;2.08;;;;;;;15.41;53.15;100130.67;1758744;80;20999;-59
2021/12/04 08:32:52;;;;;;;4.45;2.42;;;;;;;15.46;53.00;100126.39;1740706;80;21170;-72
2021/12/04 08:35:18;;;;;;;5.17;2.65;;;;;;;15.37;52.73;100124.25;1741850;81;21167;-61
2021/12/04 08:37:46;;;;;;;7.22;2.33;;;;;;;15.05;53.73;100125.67;1750174;80;22425;-59
2021/12/04 08:40:15;;;;;;;3.12;1.98;;;;;;;15.25;53.46;100120.23;1761654;80;21026;-58
2021/12/04 08:42:43;;;;;;;3.70;2.02;;;;;;;15.50;52.98;100116.25;1760274;80;20974;-66
2021/12/04 08:45:12;;;;;;;4.20;2.40;;;;;;;15.56;52.31;100114.84;1764101;80;21631;-60
2021/12/04 08:47:39;;;;;;;4.67;2.65;;;;;;;15.31;52.60;100115.44;1759819;80;21639;-64
2021/12/04 08:50:12;;;;;;;4.78;3.17;;;;;;;15.21;53.09;100113.30;1754156;80;21011;-68
2021/12/04 08:52:42;;;;;;;5.33;2.72;;;;;;;15.12;52.74;100111.98;1740149;81;21520;-67
2021/12/04 08:55:11;;;;;;;5.50;3.15;;;;;;;15.36;52.19;100106.89;1747780;81;21045;-60
2021/12/04 08:57:39;;;;;;;5.20;3.67;;;;;;;15.72;51.21;100099.54;1748241;81;21088;-60
2021/12/04 09:00:09;;;;;;;6.37;3.90;;;;;;;15.78;50.61;100087.64;1749032;81;21513;-60
2021/12/04 09:02:37;;;;;;;6.42;4.30;;;;;;;15.85;50.22;100084.94;1749205;81;21080;-71
2021/12/04 09:05:06;;;;;;;8.30;5.45;;;;;;;16.10;50.10;100082.69;1748561;81;21061;-62
2021/12/04 09:07:33;;;;;;;7.00;4.30;;;;;;;16.12;49.74;100080.13;1750926;81;21069;-60
2021/12/04 09:10:03;;;;;;;7.50;5.05;;;;;;;15.92;49.33;100077.77;1753334;80;21160;-61
2021/12/04 09:12:30;;;;;;;11.10;7.00;;;;;;;15.35;50.29;100068.53;1753994;80;20955;-61
2021/12/04 09:14:57;;;;;;;10.88;6.53;;;;;;;15.46;50.16;100068.60;1752419;80;21064;-59
2021/12/04 09:17:25;;;;;;;8.53;5.12;;;;;;;15.55;49.82;100058.59;1752155;81;21129;-61
2021/12/04 09:19:52;;;;;;;16.02;8.78;;;;;;;15.62;49.62;100060.63;1750626;81;21004;-61
2021/12/04 09:22:28;;;;;;;9.78;5.85;;;;;;;15.63;49.61;100054.34;1751548;81;21214;-61
2021/12/04 09:24:57;;;;;;;7.28;5.10;;;;;;;15.37;50.46;100054.66;1750011;81;20931;-73
2021/12/04 09:36:03;;;;;;;7.72;5.60;;;;;;;15.69;49.28;100046.94;1751347;81;22084;-60
2021/12/04 10:02:37;;;;;;;6.45;5.03;;;;;;;15.01;51.33;100056.25;1749551;81;21104;-72
2021/12/04 10:18:53;;;;;;;6.10;4.55;;;;;;;14.67;51.63;100037.88;1751589;81;20927;-59
2021/12/04 10:21:25;;;;;;;6.40;4.35;;;;;;;14.64;51.88;100040.42;1751013;81;21512;-60
2021/12/04 10:32:27;;;;;;;5.95;4.47;;;;;;;14.45;50.15;100030.34;1750216;81;20947;-61
2021/12/04 10:34:59;;;;;;;6.72;4.70;;;;;;;14.60;50.30;100030.06;1750613;81;21127;-61
2021/12/04 10:37:28;;;;;;;7.40;5.08;;;;;;;14.39;50.78;100036.44;1751574;81;21489;-60
2021/12/04 10:40:03;;;;;;;8.98;6.62;;;;;;;14.53;51.12;100025.38;1751532;81;21485;-70
2021/12/04 10:42:46;;;;;;;8.58;6.37;;;;;;;14.80;50.52;100013.63;1751574;81;21851;-60
2021/12/04 10:45:16;;;;;;;7.53;6.28;;;;;;;14.87;50.52;100006.20;1740070;81;20979;-63
2021/12/04 10:47:54;;;;;;;9.53;6.30;;;;;;;15.05;49.79;100000.46;1751243;81;21513;-72
2021/12/04 10:53:12;;;;;;;8.18;6.50;;;;;;;14.83;49.59;100001.39;1750914;81;21493;-60
2021/12/04 11:21:07;;;;;;;6.25;4.62;;;;;;;14.70;49.31;100008.09;1744377;81;21041;-61
2021/12/04 11:42:01;;;;;;;7.65;5.85;;;;;;;14.22;50.33;100015.70;1748933;80;21611;-71
2021/12/04 11:44:33;;;;;;;8.00;5.50;;;;;;;13.70;50.96;100016.31;1742292;81;21030;-63
2021/12/04 11:46:56;;;;;;;7.10;5.20;;;;;;;13.75;51.25;100009.92;1740263;81;20998;-60
2021/12/04 11:49:28;;;;;;;6.95;5.15;;;;;;;13.55;51.78;100011.34;1739692;81;22042;-62
2021/12/04 11:52:01;;;;;;;;;;;;;;;13.62;51.57;100008.19;1740981;80;20990;-73
2021/12/04 11:54:45;;;;;;;8.10;4.60;;;;;;;13.70;51.52;100009.75;1749755;81;20575;-59
2021/12/04 11:57:13;;;;;;;8.03;5.58;;;;;;;13.82;50.88;100008.88;1758632;80;21105;-61
2021/12/04 11:59:42;;;;;;;7.78;5.15;;;;;;;13.49;51.10;100010.36;1751610;80;21004;-61
2021/12/04 12:02:19;;;;;;;6.67;4.90;;;;;;;14.01;50.28;100003.22;1751853;80;21158;-60
2021/12/04 12:04:54;;;;;;;6.72;5.37;;;;;;;14.19;49.84;99991.22;1754236;79;21086;-59
2021/12/04 12:07:24;;;;;;;5.87;4.62;;;;;;;13.90;50.12;99992.10;1733986;81;21119;-62
2021/12/04 12:10:08;;;;;;;7.17;5.12;;;;;;;14.29;49.55;99980.55;1722409;82;21126;-64
2021/12/04 12:12:38;;;;;;;7.75;5.50;;;;;;;14.00;49.58;99975.92;1747037;80;21003;-61
2021/12/04 12:15:29;;;;;;;7.45;5.00;;;;;;;14.46;48.83;99965.59;1749138;80;22268;-61
2021/12/04 12:17:55;;;;;;;7.12;4.42;;;;;;;14.41;48.47;99970.69;1733024;80;21528;-63
2021/12/04 12:20:56;;;;;;;7.12;4.62;;;;;;;14.26;48.36;99966.56;1737134;80;21525;-64
2021/12/04 12:23:25;;;;;;;8.85;5.58;;;;;;;14.03;49.01;99971.58;1752802;80;21007;-59
2021/12/04 12:26:13;;;;;;;7.42;5.35;;;;;;;13.78;49.40;99973.63;1744383;80;21038;-67
2021/12/04 12:37:23;;;;;;;9.03;6.72;;;;;;;13.72;48.45;99981.55;1752903;80;20951;-70
2021/12/04 12:40:01;;;;;;;10.60;7.25;;;;;;;13.70;48.87;99975.70;1757340;80;21121;-61
2021/12/04 12:42:32;;;;;;;9.48;6.05;;;;;;;13.62;49.43;99978.06;1750997;80;21134;-59
2021/12/04 12:45:21;;;;;;;8.87;6.03;;;;;;;13.60;49.51;99988.77;1723766;82;20911;-59
2021/12/04 12:47:56;;;;;;;7.70;5.72;;;;;;;13.05;50.61;99992.75;1729494;82;21169;-60
2021/12/04 12:50:30;;;;;;;8.48;5.17;;;;;;;13.00;51.93;99999.92;1724009;82;21188;-66
2021/12/04 12:53:13;;;;;;;7.08;4.95;;;;;;;13.06;51.97;100000.39;1694062;83;21121;-59
2021/12/04 12:55:42;;;;;;;7.33;5.08;;;;;;;13.22;52.32;100007.02;1740030;81;21302;-73
2021/12/04 12:58:25;;;;;;;8.53;5.25;;;;;;;13.57;51.50;100003.58;1743465;81;21070;-76
2021/12/04 13:12:13;;;;;;;8.30;5.92;;;;;;;13.55;50.30;100004.79;1743547;81;21484;-62
2021/12/04 13:14:46;;;;;;;8.65;5.78;;;;;;;13.54;50.00;100000.57;1740842;81;21159;-60
2021/12/04 13:17:21;;;;;;;9.83;6.55;;;;;;;13.49;50.05;100003.02;1748495;80;21578;-61
2021/12/04 13:19:53;;;;;;;8.85;5.70;;;;;;;13.14;50.83;100004.59;1748214;81;20993;-72
2021/12/04 13:22:23;;;;;;;10.68;6.85;;;;;;;13.07;51.47;100011.17;1744259;80;22158;-61
2021/12/04 13:24:51;;;;;;;9.45;6.72;;;;;;;12.87;52.15;100016.94;1743665;81;20932;-64
2021/12/04 13:29:53;;;;;;;9.40;6.70;;;;;;;13.09;52.19;100010.96;1747146;81;20983;-73
2021/12/04 13:32:36;;;;;;;12.03;7.78;;;;;;;13.30;51.73;100012.05;1746980;81;21094;-61
2021/12/04 13:35:08;;;;;;;12.28;7.17;;;;;;;13.14;52.47;100008.52;1747561;81;21888;-69
2021/12/04 13:37:35;;;;;;;11.80;8.08;;;;;;;13.01;52.43;100003.33;1741064;81;21001;-72
2021/12/04 13:40:06;;;;;;;13.65;8.75;;;;;;;12.93;52.65;100003.56;1750848;81;21120;-71
2021/12/04 13:42:34;;;;;;;10.93;7.03;;;;;;;13.05;52.95;99999.30;1738926;81;21016;-60
2021/12/04 13:45:02;;;;;;;8.55;6.00;;;;;;;12.99;52.80;99993.56;1744432;81;20999;-59
2021/12/04 13:47:31;;;;;;;8.50;5.80;;;;;;;13.15;52.62;99999.17;1739281;81;21943;-66
2021/12/04 13:50:00;;;;;;;7.95;5.92;;;;;;;13.12;52.32;99993.55;1745074;81;21591;-71
2021/12/04 13:52:31;;;;;;;7.97;5.42;;;;;;;13.05;52.37;99989.62;1743566;81;21128;-69
2021/12/04 13:55:05;;;;;;;8.03;5.35;;;;;;;13.25;52.04;99986.97;1742988;81;22137;-64
2021/12/04 13:57:32;;;;;;;7.83;5.67;;;;;;;13.31;51.55;99987.98;1740213;81;21113;-59
2021/12/04 14:00:00;;;;;;;6.33;4.85;;;;;;;13.39;51.34;99989.84;1750573;81;21117;-66
2021/12/04 14:02:30;;;;;;;7.42;5.20;;;;;;;13.39;51.33;99990.36;1744419;81;22159;-61
2021/12/04 14:05:17;;;;;;;9.45;5.95;;;;;;;13.13;51.49;99988.60;1724565;81;21497;-60
2021/12/04 14:07:55;;;;;;;8.43;5.95;;;;;;;13.11;51.47;99991.95;1697251;83;21073;-66
2021/12/04 14:10:32;;;;;;;7.85;5.85;;;;;;;13.10;51.10;99989.01;1699543;83;21002;-61
2021/12/04 14:12:59;;;;;;;8.03;5.80;;;;;;;13.08;50.96;99989.73;1700591;83;21149;-62
2021/12/04 14:15:26;;;;;;;10.40;7.00;;;;;;;13.05;50.97;99988.83;1699359;83;21110;-67
2021/12/04 14:18:06;;;;;;;9.45;6.30;;;;;;;13.12;50.91;99986.49;1700009;83;21635;-61
2021/12/04 14:20:34;;;;;;;9.53;7.12;;;;;;;12.85;51.38;99990.98;1695138;83;21015;-71
2021/12/04 14:23:01;;;;;;;10.30;7.67;;;;;;;12.85;52.09;99997.53;1698308;83;20999;-68
2021/12/04 14:25:30;;;;;;;11.75;8.15;;;;;;;12.98;51.87;100002.43;1699306;83;21151;-63
2021/12/04 14:27:59;;;;;;;12.73;8.00;;;;;;;13.14;51.22;99992.34;1701075;83;20928;-62
2021/12/04 14:30:36;;;;;;;12.25;8.43;;;;;;;12.91;51.54;99998.00;1700102;83;21006;-61
2021/12/04 14:33:05;;;;;;;11.28;7.22;;;;;;;12.93;51.88;100000.44;1706932;83;21745;-60
2021/12/04 14:35:37;;;;;;;11.70;8.15;;;;;;;12.93;51.94;100003.05;1699657;83;21521;-60
2021/12/04 14:38:08;;;;;;;12.28;8.08;;;;;;;13.01;51.74;100002.03;1701288;83;21137;-62
2021/12/04 14:40:43;;;;;;;10.98;7.70;;;;;;;12.94;51.87;100007.77;1695859;83;28562;-69
2021/12/04 14:43:13;;;;;;;11.12;7.85;;;;;;;13.08;51.71;100008.05;1702260;83;21211;-63
2021/12/04 14:45:44;;;;;;;10.60;7.47;;;;;;;13.28;51.04;100004.89;1701825;82;21051;-62
2021/12/04 14:48:19;;;;;;;13.45;9.35;;;;;;;12.87;51.44;100015.62;1690122;83;20944;-64
2021/12/04 14:50:50;;;;;;;11.18;7.92;;;;;;;12.81;52.22;100018.56;1704544;82;21718;-65